Terminal Aerodrome Forecast
Issued by NWS North Platte, NE

Home | Current Version | Previous Version | Text Only | Print | Product List | Glossary Off
Versions: 1 2 3 4 5 6 7 8 9 10 11 12 13 14 15

000
FTUS43 KLBF 262157 AAA
TAFVTN
TAF AMD
KVTN 262157Z 2622/2718 09008KT P6SM -SHRA OVC090
      TEMPO 2622/2701 4SM -SHRA BKN060
     FM270100 15008KT P6SM BKN090
     FM271400 20008KT P6SM SCT150=

USA.gov is the U.S. government's official web portal to all federal, state and local government web resources and services.